Terminal Aerodrome Forecast
Issued by NWS

Home | Current Version | Previous Version | Text Only | Print | Product List | Glossary On
Versions: 1 2 3 4 5 6 7 8 9 10 11 12 13
000
FTUS45 KTFX 211720
TAFCTB
TAF
KCTB 211720Z 2118/2218 24025G35KT P6SM FEW050 FEW250
      TEMPO 2118/2122 24035G52KT
     FM220300 26017KT P6SM SKC
     FM221700 VRB05KT P6SM FEW050 SCT200=

USA.gov is the U.S. government's official web portal to all federal, state and local government web resources and services.